createdAt,value
2022-09-18T00:01:18.833Z,111527.66
2022-09-18T00:03:48.007Z,111203.59
2022-09-18T00:06:17.212Z,111173.59
2022-09-18T00:08:45.035Z,109488.03
2022-09-18T00:11:14.126Z,114625.84
2022-09-18T00:13:42.987Z,115333.59
2022-09-18T00:16:13.758Z,114296.22
2022-09-18T00:18:41.978Z,115678.84
2022-09-18T00:21:13.601Z,119107.59
2022-09-18T00:23:42.109Z,119435.16
2022-09-18T00:26:11.066Z,119789.91
2022-09-18T00:28:38.803Z,121188.34
2022-09-18T00:31:07.033Z,125308.94
2022-09-18T00:33:34.804Z,121511.78
2022-09-18T00:36:03.448Z,114656.78
2022-09-18T00:38:32.897Z,104715.31
2022-09-18T00:41:02.054Z,100580.13
2022-09-18T00:43:31.863Z,95114.84
2022-09-18T00:46:02.100Z,89667.41
2022-09-18T00:48:38.767Z,87953.94
2022-09-18T00:51:06.247Z,85559.78
2022-09-18T00:53:36.931Z,84550.72
2022-09-18T00:56:05.232Z,82514.56
2022-09-18T00:58:32.678Z,80829.44
2022-09-18T01:01:01.323Z,82166.31
2022-09-18T01:03:30.002Z,80505.25
2022-09-18T01:06:10.397Z,81170.03
2022-09-18T01:08:49.575Z,82185.72
2022-09-18T01:11:29.934Z,81518.19
2022-09-18T01:14:09.547Z,81849.19
2022-09-18T01:16:47.014Z,82180.88
2022-09-18T01:19:31.559Z,82521.53
2022-09-18T01:22:14.901Z,82541.75
2022-09-18T01:25:15.495Z,81849.88
2022-09-18T01:27:57.335Z,81186.47
2022-09-18T01:30:25.263Z,82534.06
2022-09-18T01:32:58.025Z,82874.84
2022-09-18T01:35:41.010Z,81172.78
2022-09-18T01:38:14.804Z,80485.53
2022-09-18T01:40:48.456Z,79119.22
2022-09-18T01:43:19.918Z,77414.22
2022-09-18T01:45:49.190Z,75385.13
2022-09-18T01:48:23.041Z,76062.47
2022-09-18T01:50:55.505Z,76387.63
2022-09-18T01:53:28.286Z,75707.19
2022-09-18T01:56:00.492Z,75031.94
2022-09-18T01:58:30.484Z,74018.31
2022-09-18T02:01:02.144Z,71670.88
2022-09-18T02:03:34.231Z,71315.03
2022-09-18T02:06:04.845Z,70982.16
2022-09-18T02:08:39.349Z,69949.78
2022-09-18T02:11:11.069Z,68566.84
2022-09-18T02:13:43.513Z,66212.22
2022-09-18T02:16:18.828Z,65516.94
2022-09-18T02:18:52.108Z,63830.16
2022-09-18T02:21:23.573Z,63818.28
2022-09-18T02:23:52.219Z,61800.03
2022-09-18T02:26:20.552Z,60450.97
2022-09-18T02:28:51.432Z,59436.84
2022-09-18T02:31:18.859Z,58417.63
2022-09-18T02:33:46.243Z,56397.03
2022-09-18T02:36:31.406Z,55391.38
2022-09-18T02:39:09.404Z,53374.88
2022-09-18T02:41:46.843Z,52367.84
2022-09-18T02:44:20.685Z,52017.72
2022-09-18T02:47:01.107Z,50340.53
2022-09-18T02:49:38.380Z,49667.38
2022-09-18T02:52:09.625Z,48996.91
2022-09-18T02:54:42.886Z,47988.84
2022-09-18T02:57:15.294Z,47983.50
2022-09-18T02:59:48.583Z,47979.44
2022-09-18T03:02:16.209Z,47305.22
2022-09-18T03:04:44.945Z,47306.84
2022-09-18T03:07:14.584Z,47310.06
2022-09-18T03:09:42.087Z,46971.41
2022-09-18T03:12:09.686Z,46971.41
2022-09-18T03:14:37.012Z,47637.84
2022-09-18T03:17:06.240Z,47636.22
2022-09-18T03:19:33.651Z,46966.59
2022-09-18T03:22:01.000Z,47631.34
2022-09-18T03:24:28.498Z,47635.00
2022-09-18T03:26:56.308Z,46969.41
2022-09-18T03:29:23.627Z,46636.00
2022-09-18T03:31:50.996Z,46634.41
2022-09-18T03:34:19.707Z,46969.78
2022-09-18T03:36:47.912Z,47301.59
2022-09-18T03:39:16.341Z,46635.59
2022-09-18T03:41:43.948Z,46969.78
2022-09-18T03:44:11.911Z,47298.38
2022-09-18T03:46:39.338Z,47300.00
2022-09-18T03:49:07.064Z,46638.38
2022-09-18T03:51:35.726Z,47303.22
2022-09-18T03:54:03.230Z,47639.06
2022-09-18T03:56:30.891Z,48306.28
2022-09-18T03:58:58.270Z,48310.81
2022-09-18T04:01:25.649Z,47969.59
2022-09-18T04:03:53.021Z,47980.25
2022-09-18T04:06:20.339Z,48978.09
2022-09-18T04:08:49.955Z,49654.69
2022-09-18T04:11:17.357Z,50655.56
2022-09-18T04:13:46.294Z,50659.88
2022-09-18T04:16:13.697Z,51003.34
2022-09-18T04:18:41.186Z,51666.94
2022-09-18T04:21:08.544Z,51679.69
2022-09-18T04:23:36.168Z,52683.19
2022-09-18T04:26:09.314Z,53019.03
2022-09-18T04:28:37.078Z,54026.28
2022-09-18T04:31:04.874Z,54703.78
2022-09-18T04:33:32.278Z,54378.41
2022-09-18T04:35:59.612Z,57406.72
2022-09-18T04:38:28.275Z,57418.41
2022-09-18T04:40:57.178Z,58756.97
2022-09-18T04:43:26.663Z,60771.56
2022-09-18T04:45:54.276Z,61126.75
2022-09-18T04:48:22.635Z,62125.13
2022-09-18T04:50:50.428Z,62121.44
2022-09-18T04:53:17.971Z,62127.22
2022-09-18T04:55:45.500Z,62797.34
2022-09-18T04:58:13.620Z,63478.25
2022-09-18T05:00:42.816Z,64148.00
2022-09-18T05:03:10.860Z,63486.88
2022-09-18T05:05:38.186Z,62820.25
2022-09-18T05:08:05.672Z,65154.59
2022-09-18T05:10:33.948Z,64830.94
2022-09-18T05:13:01.617Z,64835.31
2022-09-18T05:15:28.996Z,64829.84
2022-09-18T05:18:01.634Z,65504.19
2022-09-18T05:20:29.497Z,65852.81
2022-09-18T05:22:57.062Z,67199.22
2022-09-18T05:25:25.067Z,67876.28
2022-09-18T05:27:56.378Z,68893.59
2022-09-18T05:30:24.842Z,69568.13
2022-09-18T05:32:59.531Z,68905.28
2022-09-18T05:35:29.986Z,69907.75
2022-09-18T05:37:57.791Z,69901.84
2022-09-18T05:40:26.595Z,70240.31
2022-09-18T05:42:54.408Z,70916.16
2022-09-18T05:45:22.851Z,71593.34
2022-09-18T05:47:55.098Z,73307.31
2022-09-18T05:50:23.482Z,75674.53
2022-09-18T05:52:59.262Z,79055.06
2022-09-18T05:55:31.602Z,76350.19
2022-09-18T05:58:00.846Z,76011.72
2022-09-18T06:00:30.593Z,75673.25
2022-09-18T06:03:00.205Z,75002.75
2022-09-18T06:05:32.054Z,76697.78
2022-09-18T06:08:01.649Z,76011.06
2022-09-18T06:10:30.305Z,75697.56
2022-09-18T06:13:02.278Z,79067.75
2022-09-18T06:15:29.627Z,82483.25
2022-09-18T06:17:56.998Z,84182.16
2022-09-18T06:20:24.366Z,84869.41
2022-09-18T06:22:51.726Z,87231.78
2022-09-18T06:25:22.024Z,88283.25
2022-09-18T06:27:50.410Z,90336.66
2022-09-18T06:30:17.937Z,91695.19
2022-09-18T06:32:45.287Z,92389.38
2022-09-18T06:35:12.711Z,95129.28
2022-09-18T06:37:40.032Z,95153.34
2022-09-18T06:40:07.879Z,94839.19
2022-09-18T06:42:36.635Z,97566.56
2022-09-18T06:45:04.266Z,101661.19
2022-09-18T06:47:31.621Z,105418.53
2022-09-18T06:49:58.950Z,105089.47
2022-09-18T06:52:26.314Z,106128.38
2022-09-18T06:54:53.664Z,117798.84
2022-09-18T06:57:21.004Z,115747.06
2022-09-18T06:59:49.647Z,117502.66
2022-09-18T07:02:19.585Z,123358.25
2022-09-18T07:04:47.719Z,131243.69
2022-09-18T07:07:15.188Z,135420.84
2022-09-18T07:09:42.546Z,141314.00
2022-09-18T07:12:09.938Z,136134.94
2022-09-18T07:14:37.265Z,135764.13
2022-09-18T07:17:12.045Z,137175.47
2022-09-18T07:19:41.506Z,128878.09
2022-09-18T07:22:08.838Z,135132.25
2022-09-18T07:24:37.038Z,138965.63
2022-09-18T07:27:04.584Z,152414.38
2022-09-18T07:29:32.708Z,151054.06
2022-09-18T07:32:00.157Z,147076.69
2022-09-18T07:34:28.835Z,152848.81
2022-09-18T07:36:56.156Z,152866.88
2022-09-18T07:39:23.788Z,152922.34
2022-09-18T07:41:51.120Z,152950.72
2022-09-18T07:44:18.705Z,152936.53
2022-09-18T07:46:46.117Z,152986.78
2022-09-18T07:49:13.598Z,152990.66
2022-09-18T07:51:42.254Z,153008.69
2022-09-18T07:54:09.580Z,153012.56
2022-09-18T07:56:37.055Z,153040.94
2022-09-18T07:59:04.467Z,153110.59
2022-09-18T08:01:34.421Z,153146.69
2022-09-18T08:04:02.403Z,153115.72
2022-09-18T08:06:29.727Z,153124.78
2022-09-18T08:09:00.260Z,153142.81
2022-09-18T08:11:27.647Z,153202.16
2022-09-18T08:13:54.989Z,153190.56
2022-09-18T08:16:22.624Z,153247.34
2022-09-18T08:18:50.127Z,153251.22
2022-09-18T08:21:18.480Z,153216.34
2022-09-18T08:23:46.220Z,153226.66
2022-09-18T08:26:17.667Z,153180.25
2022-09-18T08:28:48.950Z,153157.00
2022-09-18T08:31:17.029Z,153169.88
2022-09-18T08:33:44.410Z,153193.16
2022-09-18T08:36:11.913Z,153278.31
2022-09-18T08:38:39.249Z,153185.38
2022-09-18T08:41:24.446Z,153128.66
2022-09-18T08:44:02.350Z,153243.44
2022-09-18T08:46:36.538Z,153224.06
2022-09-18T08:49:16.147Z,153231.84
2022-09-18T08:51:50.094Z,153289.97
2022-09-18T08:54:23.622Z,153394.50
2022-09-18T08:56:53.200Z,153450.03
2022-09-18T08:59:30.540Z,153466.78
2022-09-18T09:02:15.446Z,153453.84
2022-09-18T09:04:43.557Z,153475.84
2022-09-18T09:07:24.591Z,153444.84
2022-09-18T09:10:12.880Z,153461.63
2022-09-18T09:12:50.290Z,153397.09
2022-09-18T09:15:29.262Z,153471.94
2022-09-18T09:18:06.575Z,153475.84
2022-09-18T09:20:45.711Z,153420.31
2022-09-18T09:23:20.427Z,153465.53
2022-09-18T09:25:59.822Z,153474.53
2022-09-18T09:28:33.628Z,153593.38
2022-09-18T09:31:05.523Z,153665.75
2022-09-18T09:33:38.753Z,153761.38
2022-09-18T09:36:09.232Z,153744.56
2022-09-18T09:38:46.131Z,153769.09
2022-09-18T09:41:21.684Z,153708.38
2022-09-18T09:43:59.611Z,153681.25
2022-09-18T09:46:44.558Z,153782.00
2022-09-18T09:49:17.036Z,153864.78
2022-09-18T09:51:51.722Z,153876.41
2022-09-18T09:54:19.224Z,153890.63
2022-09-18T09:56:53.936Z,153868.69
2022-09-18T09:59:31.716Z,153784.59
2022-09-18T10:02:02.978Z,153696.72
2022-09-18T10:04:38.958Z,153838.88
2022-09-18T10:07:16.330Z,153802.72
2022-09-18T10:09:51.936Z,153859.56
2022-09-18T10:12:27.668Z,153877.72
2022-09-18T10:15:04.512Z,153952.66
2022-09-18T10:17:39.090Z,153966.91
2022-09-18T10:20:07.790Z,153955.25
2022-09-18T10:22:37.403Z,153919.09
2022-09-18T10:25:08.282Z,153829.84
2022-09-18T10:27:35.764Z,153682.50
2022-09-18T10:30:12.529Z,153598.56
2022-09-18T10:32:42.108Z,153562.34
2022-09-18T10:35:42.351Z,153739.38
2022-09-18T10:38:29.435Z,153805.25
2022-09-18T10:40:57.305Z,153859.56
2022-09-18T10:43:24.739Z,153885.44
2022-09-18T10:45:56.983Z,154040.63
2022-09-18T10:48:26.444Z,154087.22
2022-09-18T10:50:54.819Z,154167.47
2022-09-18T10:53:29.344Z,153942.34
2022-09-18T10:56:03.038Z,153921.69
2022-09-18T10:58:32.221Z,153681.25
2022-09-18T11:01:04.194Z,153650.25
2022-09-18T11:03:42.978Z,153530.06
2022-09-18T11:06:17.607Z,153595.97
2022-09-18T11:08:48.655Z,153727.75
2022-09-18T11:11:23.322Z,153913.88
2022-09-18T11:13:55.524Z,154092.34
2022-09-18T11:16:26.699Z,154052.25
2022-09-18T11:19:23.326Z,154025.09
2022-09-18T11:21:54.942Z,154017.38
2022-09-18T11:24:25.611Z,153960.47
2022-09-18T11:26:54.745Z,153800.13
2022-09-18T11:29:30.577Z,153771.69
2022-09-18T11:32:04.781Z,153717.41
2022-09-18T11:34:33.858Z,153670.88
2022-09-18T11:37:07.695Z,153703.19
2022-09-18T11:39:38.713Z,153791.03
2022-09-18T11:42:12.056Z,153782.00
2022-09-18T11:44:40.499Z,153789.81
2022-09-18T11:47:40.754Z,153752.28
2022-09-18T11:50:15.117Z,153973.38
2022-09-18T11:52:45.215Z,154094.94
2022-09-18T11:55:26.810Z,154208.88
2022-09-18T11:57:57.606Z,154123.41
2022-09-18T12:00:29.897Z,154150.63
2022-09-18T12:03:08.326Z,154247.69
2022-09-18T12:05:52.397Z,154216.63
2022-09-18T12:08:26.417Z,154299.44
2022-09-18T12:11:08.112Z,154392.63
2022-09-18T12:13:45.656Z,154149.34
2022-09-18T12:16:18.929Z,154110.47
2022-09-18T12:18:53.515Z,154091.06
2022-09-18T12:21:26.794Z,154076.81
2022-09-18T12:23:54.284Z,153963.06
2022-09-18T12:26:31.128Z,154050.97
2022-09-18T12:29:19.591Z,154038.03
2022-09-18T12:31:54.997Z,153968.19
2022-09-18T12:34:32.855Z,154145.44
2022-09-18T12:37:15.977Z,154232.16
2022-09-18T12:40:00.987Z,154303.34
2022-09-18T12:42:38.466Z,154128.56
2022-09-18T12:45:33.808Z,154107.88
2022-09-18T12:48:18.198Z,154069.09
2022-09-18T12:51:07.038Z,154017.38
2022-09-18T12:53:45.761Z,154052.25
2022-09-18T12:56:24.047Z,153903.56
2022-09-18T12:59:07.427Z,153895.81
2022-09-18T13:01:39.467Z,153898.38
2022-09-18T13:04:17.483Z,153981.13
2022-09-18T13:06:49.887Z,153952.66
2022-09-18T13:09:25.670Z,153911.34
2022-09-18T13:11:58.864Z,153864.78
2022-09-18T13:14:29.718Z,153937.19
2022-09-18T13:17:06.295Z,153859.56
2022-09-18T13:19:36.208Z,153831.09
2022-09-18T13:22:08.230Z,153849.22
2022-09-18T13:24:39.785Z,153917.78
2022-09-18T13:27:12.311Z,154003.13
2022-09-18T13:29:56.415Z,153963.06
2022-09-18T13:32:25.909Z,153946.25
2022-09-18T13:34:56.409Z,153937.19
2022-09-18T13:37:27.163Z,153916.50
2022-09-18T13:40:09.684Z,153880.31
2022-09-18T13:42:41.403Z,153937.19
2022-09-18T13:45:19.590Z,153960.47
2022-09-18T13:48:02.024Z,154013.47
2022-09-18T13:50:31.078Z,154065.19
2022-09-18T13:53:00.765Z,154133.75
2022-09-18T13:55:35.079Z,154061.31
2022-09-18T13:58:20.011Z,154093.66
2022-09-18T14:00:47.512Z,153981.13
2022-09-18T14:03:36.377Z,153915.19
2022-09-18T14:06:41.037Z,153833.72
2022-09-18T14:09:27.139Z,153704.50
2022-09-18T14:11:55.609Z,153709.63
2022-09-18T14:14:25.690Z,153738.06
2022-09-18T14:16:53.287Z,153688.97
2022-09-18T14:19:32.054Z,153595.97
2022-09-18T14:22:01.280Z,153555.91
2022-09-18T14:24:58.867Z,153572.75
2022-09-18T14:27:36.687Z,153593.38
2022-09-18T14:30:16.870Z,153564.91
2022-09-18T14:32:55.292Z,153561.03
2022-09-18T14:35:31.097Z,153482.28
2022-09-18T14:37:58.445Z,153466.78
2022-09-18T14:40:28.209Z,153434.53
2022-09-18T14:42:55.692Z,153439.66
2022-09-18T14:45:29.766Z,153397.09
2022-09-18T14:47:58.478Z,153440.94
2022-09-18T14:50:32.195Z,153448.72
2022-09-18T14:53:02.043Z,153358.34
2022-09-18T14:55:39.427Z,153373.81
2022-09-18T14:58:09.210Z,153320.91
2022-09-18T15:00:39.122Z,153286.09
2022-09-18T15:03:09.959Z,153196.97
2022-09-18T15:05:37.831Z,153187.97
2022-09-18T15:08:08.770Z,153135.09
2022-09-18T15:10:40.823Z,153108.00
2022-09-18T15:13:10.204Z,153071.91
2022-09-18T15:15:40.343Z,153100.28
2022-09-18T15:18:19.098Z,153038.34
2022-09-18T15:20:49.706Z,153066.72
2022-09-18T15:23:23.036Z,153056.44
2022-09-18T15:25:53.881Z,153040.94
2022-09-18T15:28:25.370Z,152937.81
2022-09-18T15:30:57.247Z,153006.16
2022-09-18T15:33:27.262Z,145007.88
2022-09-18T15:35:56.433Z,132932.81
2022-09-18T15:38:26.903Z,122191.75
2022-09-18T15:40:55.653Z,120137.44
2022-09-18T15:43:40.884Z,119385.84
2022-09-18T15:46:09.825Z,116253.03
2022-09-18T15:48:41.955Z,113140.94
2022-09-18T15:51:13.866Z,108290.84
2022-09-18T15:53:41.377Z,103567.91
2022-09-18T15:56:20.806Z,105629.19
2022-09-18T15:58:54.333Z,105638.06
2022-09-18T16:01:25.767Z,106624.38
2022-09-18T16:04:04.511Z,100500.53
2022-09-18T16:06:40.466Z,104581.66
2022-09-18T16:09:07.833Z,104232.63
2022-09-18T16:11:44.491Z,102515.31
2022-09-18T16:14:43.223Z,99723.78
2022-09-18T16:17:47.986Z,96689.91
2022-09-18T16:20:39.915Z,99052.75
2022-09-18T16:23:19.878Z,97717.94
2022-09-18T16:26:03.777Z,97389.72
2022-09-18T16:28:35.273Z,101778.59
2022-09-18T16:31:03.026Z,99068.59
2022-09-18T16:33:33.017Z,103513.84
2022-09-18T16:36:03.679Z,102171.81
2022-09-18T16:38:35.009Z,102837.22
2022-09-18T16:41:02.589Z,107655.53
2022-09-18T16:43:30.170Z,118594.09
2022-09-18T16:45:58.959Z,121675.69
2022-09-18T16:48:29.885Z,123750.59
2022-09-18T16:50:57.230Z,132384.88
2022-09-18T16:53:24.563Z,128614.41
2022-09-18T16:55:57.010Z,128555.94
2022-09-18T16:58:26.551Z,127538.41
2022-09-18T17:00:53.997Z,132757.16
2022-09-18T17:03:22.875Z,139971.00
2022-09-18T17:05:50.243Z,146852.84
2022-09-18T17:08:17.684Z,144816.13
2022-09-18T17:10:45.400Z,152411.69
2022-09-18T17:13:13.513Z,152788.25
2022-09-18T17:15:41.032Z,152808.84
2022-09-18T17:18:08.480Z,152767.63
2022-09-18T17:20:37.171Z,152739.28
2022-09-18T17:23:04.546Z,152761.19
2022-09-18T17:25:31.986Z,152727.69
2022-09-18T17:27:59.318Z,152754.75
2022-09-18T17:30:26.714Z,152752.16
2022-09-18T17:32:54.034Z,152735.44
2022-09-18T17:35:21.384Z,152762.50
2022-09-18T17:37:51.579Z,152777.97
2022-09-18T17:40:19.985Z,152815.31
2022-09-18T17:42:47.372Z,152739.28
2022-09-18T17:45:14.973Z,152756.03
2022-09-18T17:47:42.355Z,152718.69
2022-09-18T17:50:10.039Z,152690.34
2022-09-18T17:52:37.641Z,152692.94
2022-09-18T17:55:07.634Z,152726.41
2022-09-18T17:57:36.262Z,152672.28
2022-09-18T18:00:04.498Z,152633.66
2022-09-18T18:02:33.051Z,152611.78
2022-09-18T18:05:01.769Z,152628.53
2022-09-18T18:07:29.272Z,152620.78
2022-09-18T18:09:56.593Z,152673.59
2022-09-18T18:12:25.249Z,152682.63
2022-09-18T18:14:52.598Z,152734.16
2022-09-18T18:17:20.120Z,152664.59
2022-09-18T18:19:47.453Z,152671.03
2022-09-18T18:22:14.778Z,152656.88
2022-09-18T18:24:42.215Z,152638.81
2022-09-18T18:27:09.634Z,152716.09
2022-09-18T18:29:40.841Z,152624.66
2022-09-18T18:32:08.195Z,152609.19
2022-09-18T18:34:35.544Z,152593.75
2022-09-18T18:37:04.543Z,152569.28
2022-09-18T18:39:31.875Z,152571.88
2022-09-18T18:41:59.224Z,152613.06
2022-09-18T18:44:26.613Z,152571.88
2022-09-18T18:46:55.504Z,152564.13
2022-09-18T18:49:23.519Z,152561.56
2022-09-18T18:51:51.764Z,152615.66
2022-09-18T18:54:21.526Z,152589.91
2022-09-18T18:56:49.618Z,152543.53
2022-09-18T18:59:19.244Z,152559.00
2022-09-18T19:01:47.231Z,152553.81
2022-09-18T19:04:18.922Z,152543.53
2022-09-18T19:06:46.555Z,152506.22
2022-09-18T19:09:19.976Z,152499.75
2022-09-18T19:11:49.166Z,152485.53
2022-09-18T19:14:18.411Z,152544.81
2022-09-18T19:16:46.635Z,152510.03
2022-09-18T19:19:17.989Z,152481.72
2022-09-18T19:21:45.691Z,152486.81
2022-09-18T19:24:13.585Z,152504.91
2022-09-18T19:26:42.715Z,152497.13
2022-09-18T19:29:12.901Z,152535.84
2022-09-18T19:31:42.565Z,152466.25
2022-09-18T19:34:11.766Z,152472.66
2022-09-18T19:36:41.169Z,152481.72
2022-09-18T19:39:12.070Z,152537.06
2022-09-18T19:41:44.299Z,152538.38
2022-09-18T19:44:15.761Z,152515.22
2022-09-18T19:46:43.283Z,152466.25
2022-09-18T19:49:16.942Z,152464.97
2022-09-18T19:51:45.873Z,152466.25
2022-09-18T19:54:13.255Z,152392.88
2022-09-18T19:56:46.901Z,152436.63
2022-09-18T19:59:14.351Z,152422.47
2022-09-18T20:01:42.231Z,152394.16
2022-09-18T20:04:10.025Z,152448.22
2022-09-18T20:06:38.727Z,152435.34
2022-09-18T20:09:07.394Z,152435.34
2022-09-18T20:11:35.127Z,152425.06
2022-09-18T20:14:03.291Z,152459.81
2022-09-18T20:16:30.719Z,152398.03
2022-09-18T20:18:58.121Z,152405.75
2022-09-18T20:21:25.604Z,152440.50
2022-09-18T20:23:56.923Z,152372.31
2022-09-18T20:26:26.612Z,152385.16
2022-09-18T20:28:53.961Z,152417.31
2022-09-18T20:31:23.692Z,152396.75
2022-09-18T20:33:55.464Z,152441.81
2022-09-18T20:36:23.175Z,152400.63
2022-09-18T20:38:52.081Z,152409.63
2022-09-18T20:41:21.022Z,152371.00
2022-09-18T20:43:53.530Z,152347.88
2022-09-18T21:00:54.090Z,152331.13
2022-09-18T21:03:22.349Z,152338.81
2022-09-18T21:06:02.742Z,152316.97
2022-09-18T21:08:42.828Z,152309.22
2022-09-18T21:11:10.676Z,152309.22
2022-09-18T21:13:43.406Z,152298.94
2022-09-18T21:16:12.192Z,152350.41
2022-09-18T21:18:41.008Z,152404.44
2022-09-18T21:21:10.779Z,152386.47
2022-09-18T21:23:56.187Z,152350.41
2022-09-18T21:26:25.222Z,152316.97
2022-09-18T21:28:53.525Z,152355.56
2022-09-18T21:31:23.037Z,152302.81
2022-09-18T21:33:52.796Z,152334.94
2022-09-18T21:36:21.631Z,152309.22
2022-09-18T21:38:50.798Z,152319.56
2022-09-18T21:41:19.429Z,152322.09
2022-09-18T21:43:50.990Z,152302.81
2022-09-18T21:46:20.268Z,152319.56
2022-09-18T21:48:52.893Z,152328.53
2022-09-18T21:51:20.793Z,152332.41
2022-09-18T21:53:48.295Z,152376.13
2022-09-18T21:56:18.314Z,152342.69
2022-09-18T21:58:47.251Z,152430.19
2022-09-18T22:01:17.697Z,152392.88
2022-09-18T22:03:50.523Z,152436.63
2022-09-18T22:06:20.335Z,152463.66
2022-09-18T22:08:48.763Z,152441.81
2022-09-18T22:11:17.033Z,152471.38
2022-09-18T22:13:44.375Z,152449.50
2022-09-18T22:16:11.791Z,152450.81
2022-09-18T22:18:40.678Z,152449.50
2022-09-18T22:21:20.313Z,152492.00
2022-09-18T22:23:54.995Z,152473.97
2022-09-18T22:26:23.990Z,152534.53
2022-09-18T22:28:53.350Z,152468.84
2022-09-18T22:31:21.775Z,152499.75
2022-09-18T22:33:50.303Z,152492.00
2022-09-18T22:36:17.640Z,152499.75
2022-09-18T22:38:44.987Z,152507.50
2022-09-18T22:41:13.777Z,152506.22
2022-09-18T22:43:41.325Z,152504.91
2022-09-18T22:46:11.295Z,152502.34
2022-09-18T22:48:39.354Z,152531.97
2022-09-18T22:51:08.676Z,152548.69
2022-09-18T22:53:36.909Z,152539.66
2022-09-18T22:56:06.315Z,152551.25
2022-09-18T22:58:35.725Z,152574.44
2022-09-18T23:01:08.091Z,152569.28
2022-09-18T23:03:36.756Z,152539.66
2022-09-18T23:06:06.256Z,152548.69
2022-09-18T23:08:35.305Z,152473.97
2022-09-18T23:11:03.803Z,142127.06
2022-09-18T23:13:32.343Z,133813.16
2022-09-18T23:16:06.177Z,129697.53
2022-09-18T23:18:34.212Z,129645.03
2022-09-18T23:21:03.822Z,121442.19
2022-09-18T23:23:33.260Z,118699.94
2022-09-18T23:26:05.883Z,121059.69
2022-09-18T23:28:34.628Z,115873.56
2022-09-18T23:31:08.439Z,112431.00
2022-09-18T23:33:36.210Z,106967.50
2022-09-18T23:36:11.611Z,101868.31
2022-09-18T23:38:39.487Z,102174.63
2022-09-18T23:41:09.372Z,98059.59
2022-09-18T23:43:37.563Z,95010.59
2022-09-18T23:46:07.899Z,91942.88
2022-09-18T23:48:35.299Z,90581.81
2022-09-18T23:51:03.599Z,88202.09
2022-09-18T23:53:37.929Z,86829.25
2022-09-18T23:56:07.861Z,83766.44
2022-09-18T23:58:35.549Z,81063.84
